Time;durP1;ratioP1;P1;durP2;ratioP2;P2;SDS_P1;SDS_P2;PMS_P1;PMS_P2;Temp;Humidity;BMP_temperature;BMP_pressure;BME280_temperature;BME280_humidity;BME280_pressure;Samples;Min_cycle;Max_cycle;Signal;HPM_P1;HPM_P2
2022/01/03 00:00:15;;;;;;;7.18;2.42;;;;;;;11.07;72.53;98839.44;2622706;54;20537;-72
2022/01/03 00:02:48;;;;;;;8.57;2.40;;;;;;;11.04;73.01;98827.41;2622181;39;20413;-73
2022/01/03 00:05:27;;;;;;;5.97;2.58;;;;;;;11.04;73.21;98839.81;2619339;47;20035;-74
2022/01/03 00:07:57;;;;;;;8.30;3.08;;;;;;;11.04;73.01;98827.41;2619385;47;20562;-74
2022/01/03 00:10:27;;;;;;;8.10;2.53;;;;;;;11.07;72.18;98827.03;2619849;54;20030;-74
2022/01/03 00:12:57;;;;;;;10.88;2.80;;;;;;;11.06;72.15;98846.56;2620110;54;20753;-74
2022/01/03 00:15:27;;;;;;;6.85;2.67;;;;;;;11.07;72.50;98858.78;2620213;54;20524;-74
2022/01/03 00:17:59;;;;;;;4.80;1.85;;;;;;;11.08;72.12;98854.31;2620212;54;20534;-73
2022/01/03 00:20:29;;;;;;;10.13;2.13;;;;;;;11.08;72.20;98868.34;2619681;47;20026;-73
2022/01/03 00:23:04;;;;;;;8.18;2.50;;;;;;;11.09;72.19;98859.38;2620376;54;20039;-73
2022/01/03 00:25:38;;;;;;;6.78;1.88;;;;;;;11.11;72.18;98853.91;2620186;54;20034;-74
2022/01/03 00:28:16;;;;;;;7.43;2.42;;;;;;;11.10;72.05;98839.88;2620865;39;20423;-74
2022/01/03 00:30:46;;;;;;;10.63;2.88;;;;;;;11.10;71.62;98844.31;2620355;54;20037;-74
2022/01/03 00:33:21;;;;;;;7.82;2.40;;;;;;;11.14;71.62;98843.78;2619985;47;20537;-73
2022/01/03 00:35:55;;;;;;;7.78;2.58;;;;;;;11.12;71.33;98868.78;2620781;39;20417;-74
2022/01/03 00:38:25;;;;;;;11.00;2.65;;;;;;;11.11;72.00;98864.50;2620004;47;20563;-73
2022/01/03 00:40:55;;;;;;;11.88;3.08;;;;;;;11.13;72.04;98857.97;2620067;54;20034;-72
2022/01/03 00:43:27;;;;;;;10.45;2.85;;;;;;;11.13;71.46;98873.03;2619973;47;20039;-73
2022/01/03 00:45:58;;;;;;;6.97;1.85;;;;;;;11.15;71.83;98886.91;2621074;39;20132;-73
2022/01/03 00:48:34;;;;;;;7.28;2.85;;;;;;;11.20;71.21;98899.56;2619623;47;20023;-73
2022/01/03 00:51:05;;;;;;;9.02;2.35;;;;;;;11.17;71.50;98903.41;2620522;54;20541;-73
2022/01/03 00:53:35;;;;;;;5.70;1.42;;;;;;;10.83;69.21;98909.47;2620021;39;20462;-73
2022/01/03 00:56:06;;;;;;;3.17;1.13;;;;;;;10.34;68.53;98912.91;2619614;54;20041;-73
2022/01/03 00:58:39;;;;;;;6.05;1.88;;;;;;;9.95;71.79;98900.03;2619418;54;20050;-73
2022/01/03 01:01:09;;;;;;;5.82;1.25;;;;;;;9.63;74.50;98936.41;2618878;47;20039;-74
2022/01/03 01:03:44;;;;;;;4.82;1.02;;;;;;;9.48;74.94;98928.50;2618403;47;20049;-74
2022/01/03 01:06:13;;;;;;;7.25;1.77;;;;;;;9.39;75.45;98953.34;2617958;50;20039;-73
2022/01/03 01:08:46;;;;;;;4.70;1.15;;;;;;;9.23;76.57;98979.91;2618527;47;20051;-74
2022/01/03 01:11:17;;;;;;;6.13;1.23;;;;;;;8.74;77.10;99002.22;2619403;39;20409;-72
2022/01/03 01:13:48;;;;;;;4.95;1.20;;;;;;;8.08;80.07;98985.09;2617860;51;20071;-72
2022/01/03 01:16:18;;;;;;;5.78;1.25;;;;;;;7.79;82.59;98962.84;2617988;54;20058;-72
2022/01/03 01:18:55;;;;;;;5.60;1.85;;;;;;;7.72;83.95;98948.75;2618552;47;20023;-72
2022/01/03 01:21:27;;;;;;;8.75;1.67;;;;;;;7.74;84.82;98967.00;2618565;47;20029;-72
2022/01/03 01:24:00;;;;;;;7.40;1.50;;;;;;;7.81;84.76;98957.44;2618836;47;20030;-72
2022/01/03 01:29:14;;;;;;;5.32;1.20;;;;;;;7.86;86.05;98947.22;2618394;47;20042;-72
2022/01/03 01:31:48;;;;;;;5.40;1.38;;;;;;;7.95;86.30;98954.06;2617982;47;20085;-72
2022/01/03 01:34:27;;;;;;;6.47;1.17;;;;;;;8.04;86.89;98955.69;2618241;54;20529;-72
2022/01/03 01:37:01;;;;;;;8.35;1.65;;;;;;;8.08;86.82;98951.72;2618523;51;20027;-72
2022/01/03 01:39:36;;;;;;;7.72;1.33;;;;;;;8.15;87.32;98951.84;2619121;47;20072;-71
2022/01/03 01:42:07;;;;;;;8.13;1.45;;;;;;;8.19;87.96;98972.38;2619365;47;20134;-71
2022/01/03 01:44:41;;;;;;;6.95;1.65;;;;;;;8.15;87.79;98967.63;2619762;39;20406;-72
2022/01/03 01:47:11;;;;;;;9.15;1.65;;;;;;;8.12;88.33;98976.72;2618738;47;20030;-72
2022/01/03 01:49:47;;;;;;;3.50;1.10;;;;;;;8.17;88.29;98976.19;2619277;47;20069;-72
2022/01/03 01:52:24;;;;;;;8.00;1.52;;;;;;;8.16;88.55;98971.91;2618025;47;20037;-72
2022/01/03 01:55:06;;;;;;;6.90;1.40;;;;;;;8.15;88.50;98970.28;2618236;51;20039;-72
2022/01/03 01:57:56;;;;;;;3.00;1.23;;;;;;;8.17;88.88;98955.94;2618154;54;20611;-72
2022/01/03 02:00:36;;;;;;;5.75;1.30;;;;;;;8.20;89.00;98931.06;2617925;54;20038;-72
2022/01/03 02:03:21;;;;;;;6.47;1.63;;;;;;;8.24;89.49;98953.41;2617943;54;20034;-72
2022/01/03 02:06:10;;;;;;;5.30;1.50;;;;;;;8.24;89.30;98966.59;2617716;47;20034;-71
2022/01/03 02:08:45;;;;;;;7.40;1.75;;;;;;;8.27;89.63;98989.13;2617997;51;20619;-72
2022/01/03 02:11:21;;;;;;;3.95;1.30;;;;;;;7.99;88.60;98991.41;2617513;54;20046;-72
2022/01/03 02:13:54;;;;;;;5.47;1.58;;;;;;;7.88;89.27;98969.75;2617604;47;20046;-69
2022/01/03 02:16:24;;;;;;;7.38;1.35;;;;;;;7.82;89.79;98959.06;2617136;54;20539;-67
2022/01/03 02:18:56;;;;;;;3.05;1.13;;;;;;;7.82;89.99;98961.72;2617035;54;20023;-68
2022/01/03 02:21:29;;;;;;;7.38;1.20;;;;;;;7.79;89.40;98968.13;2617093;47;20027;-68
2022/01/03 02:23:59;;;;;;;5.70;1.10;;;;;;;7.82;89.12;98980.13;2617410;39;20522;-68
2022/01/03 02:26:30;;;;;;;3.08;0.95;;;;;;;7.80;88.72;98955.81;2617502;39;20442;-68
2022/01/03 02:29:00;;;;;;;5.22;1.90;;;;;;;7.82;89.14;98980.13;2616920;47;20026;-69
2022/01/03 02:31:31;;;;;;;4.22;1.20;;;;;;;7.84;89.89;98971.09;2617112;54;20034;-71
2022/01/03 02:34:03;;;;;;;4.38;1.20;;;;;;;7.85;90.20;98958.75;2617787;47;20027;-69
2022/01/03 02:36:38;;;;;;;4.43;1.15;;;;;;;7.92;90.98;98954.44;2617750;54;20034;-68
2022/01/03 02:39:08;;;;;;;3.17;1.02;;;;;;;8.01;91.32;98958.66;2617834;54;20038;-70
2022/01/03 02:41:38;;;;;;;5.07;1.40;;;;;;;8.05;91.21;98956.50;2618033;54;20034;-68
2022/01/03 02:44:08;;;;;;;4.40;1.30;;;;;;;8.03;90.82;98969.00;2618697;54;20042;-69
2022/01/03 02:46:39;;;;;;;8.35;1.67;;;;;;;8.06;91.04;98947.63;2619370;54;20596;-69
2022/01/03 02:49:09;;;;;;;9.55;1.83;;;;;;;8.05;90.57;98945.97;2618819;54;20629;-68
2022/01/03 02:51:45;;;;;;;9.15;1.58;;;;;;;8.05;90.77;98923.09;2623502;54;20023;-71
2022/01/03 02:54:18;;;;;;;6.45;1.50;;;;;;;8.07;90.96;98938.72;2626556;54;20027;-69
2022/01/03 02:56:47;;;;;;;5.35;1.70;;;;;;;8.12;90.74;98939.84;2626624;47;20033;-71
2022/01/03 02:59:19;;;;;;;8.80;1.58;;;;;;;8.17;90.92;98939.34;2623310;54;20029;-68
2022/01/03 03:01:50;;;;;;;8.30;1.98;;;;;;;8.21;90.88;98926.63;2625220;47;20026;-69
2022/01/03 03:04:22;;;;;;;7.38;2.10;;;;;;;8.30;91.75;98939.56;2626314;54;20034;-69
2022/01/03 03:06:54;;;;;;;7.18;2.05;;;;;;;8.41;91.42;98927.84;2628653;39;20129;-69
2022/01/03 03:09:24;;;;;;;10.43;2.42;;;;;;;8.54;90.50;98924.63;2626351;47;20035;-69
2022/01/03 03:11:54;;;;;;;10.15;2.33;;;;;;;8.74;90.28;98933.69;2626792;54;20103;-69
2022/01/03 03:14:23;;;;;;;8.35;2.60;;;;;;;8.85;89.63;98938.50;2621495;39;20500;-70
2022/01/03 03:16:53;;;;;;;7.40;2.03;;;;;;;9.00;88.54;98921.94;2619822;54;20313;-72
2022/01/03 03:19:23;;;;;;;11.02;2.30;;;;;;;9.11;87.43;98929.41;2619956;47;20038;-72
2022/01/03 03:21:55;;;;;;;9.82;2.58;;;;;;;9.16;86.94;98933.13;2619825;47;20574;-73
2022/01/03 03:24:25;;;;;;;12.18;3.40;;;;;;;9.27;86.39;98926.59;2620218;39;20434;-72
2022/01/03 03:26:55;;;;;;;10.48;2.28;;;;;;;9.33;84.73;98931.13;2619961;54;20035;-72
2022/01/03 03:29:26;;;;;;;14.35;2.17;;;;;;;9.40;85.08;98929.41;2619570;47;20023;-72
2022/01/03 03:31:56;;;;;;;10.73;2.10;;;;;;;9.45;84.09;98922.78;2619669;46;20027;-71
2022/01/03 03:34:26;;;;;;;11.02;2.92;;;;;;;9.46;83.25;98927.88;2619775;47;20039;-70
2022/01/03 03:36:58;;;;;;;9.73;2.03;;;;;;;9.52;82.42;98928.97;2619036;47;20039;-70
2022/01/03 03:39:29;;;;;;;14.00;2.58;;;;;;;9.59;81.56;98924.56;2619410;39;20438;-71
2022/01/03 03:41:58;;;;;;;10.63;2.50;;;;;;;9.63;80.62;98926.69;2618934;47;20070;-71
2022/01/03 03:44:29;;;;;;;11.63;2.60;;;;;;;9.65;81.02;98918.59;2618961;47;20030;-73
2022/01/03 03:47:00;;;;;;;7.65;2.00;;;;;;;9.68;79.74;98934.06;2619196;47;20034;-71
2022/01/03 03:49:30;;;;;;;13.82;2.40;;;;;;;9.69;79.62;98925.13;2622540;47;20040;-71
2022/01/03 03:52:03;;;;;;;4.15;1.80;;;;;;;9.71;80.02;98924.94;2624805;39;20427;-71
2022/01/03 03:54:35;;;;;;;15.10;2.58;;;;;;;9.75;79.69;98926.22;2623448;46;20030;-71
2022/01/03 03:57:08;;;;;;;14.77;2.53;;;;;;;9.76;79.11;98933.16;2623055;39;20535;-72
2022/01/03 03:59:38;;;;;;;13.30;2.10;;;;;;;9.80;78.85;98939.69;2622724;47;20552;-70
2022/01/03 04:02:08;;;;;;;9.82;2.35;;;;;;;9.80;78.86;98929.94;2622923;47;20030;-71
2022/01/03 04:04:39;;;;;;;14.00;2.42;;;;;;;9.82;78.91;98922.66;2622775;47;20038;-71
2022/01/03 04:07:12;;;;;;;11.75;2.50;;;;;;;9.84;77.67;98919.84;2623056;47;20019;-71
2022/01/03 04:09:42;;;;;;;10.15;2.70;;;;;;;9.80;76.83;98923.84;2623524;54;20023;-72
2022/01/03 04:12:12;;;;;;;17.23;2.85;;;;;;;9.84;76.79;98918.03;2620626;54;20027;-72
2022/01/03 04:14:41;;;;;;;12.02;2.55;;;;;;;9.84;76.56;98915.38;2619657;47;20022;-71
2022/01/03 04:17:12;;;;;;;13.35;2.30;;;;;;;9.85;76.43;98911.72;2618759;47;20071;-71
2022/01/03 04:19:42;;;;;;;12.90;2.38;;;;;;;9.90;75.95;98903.25;2619758;47;20038;-72
2022/01/03 04:22:15;;;;;;;17.30;2.50;;;;;;;9.93;75.10;98908.16;2619962;54;20025;-71
2022/01/03 04:24:44;;;;;;;22.60;2.78;;;;;;;9.90;75.29;98927.81;2620488;54;20904;-71
2022/01/03 04:27:15;;;;;;;11.77;2.40;;;;;;;9.91;75.62;98932.09;2620352;54;20034;-72
2022/01/03 04:29:44;;;;;;;10.80;2.38;;;;;;;9.92;75.98;98928.47;2619827;47;20026;-72
2022/01/03 04:32:14;;;;;;;13.75;2.70;;;;;;;9.94;76.12;98933.56;2620635;54;20030;-72
2022/01/03 04:34:45;;;;;;;10.27;2.58;;;;;;;9.96;76.13;98933.38;2620435;54;20030;-71
2022/01/03 04:37:18;;;;;;;13.82;2.50;;;;;;;9.97;75.72;98938.47;2621376;39;20543;-71
2022/01/03 04:39:48;;;;;;;6.25;1.70;;;;;;;9.97;76.22;98935.03;2619707;47;20030;-71
2022/01/03 04:42:17;;;;;;;12.65;3.22;;;;;;;9.96;75.76;98938.66;2619603;47;20034;-72
2022/01/03 04:44:47;;;;;;;16.98;3.08;;;;;;;9.97;76.07;98927.09;2622149;31;20590;-72
2022/01/03 04:47:18;;;;;;;13.32;2.25;;;;;;;10.00;75.97;98926.69;2619143;47;20018;-72
2022/01/03 04:49:50;;;;;;;15.35;2.80;;;;;;;9.99;75.45;98936.47;2619493;47;20033;-72
2022/01/03 04:52:23;;;;;;;10.23;2.78;;;;;;;10.00;74.77;98932.84;2619858;47;20031;-72
2022/01/03 04:54:52;;;;;;;16.08;2.80;;;;;;;10.02;75.43;98941.38;2618662;54;20062;-72
2022/01/03 04:57:22;;;;;;;13.10;2.33;;;;;;;10.00;75.02;98934.63;2618957;54;20034;-72
2022/01/03 04:59:52;;;;;;;14.00;2.88;;;;;;;9.99;74.84;98931.16;2619347;54;20059;-71
2022/01/03 05:02:22;;;;;;;14.20;2.50;;;;;;;10.00;75.08;98934.63;2619154;54;20062;-72
2022/01/03 05:04:52;;;;;;;9.68;2.20;;;;;;;9.98;74.59;98932.19;2618969;51;20045;-69
2022/01/03 05:07:24;;;;;;;16.83;3.35;;;;;;;9.93;74.98;98924.81;2618148;54;20565;-71
2022/01/03 05:09:54;;;;;;;12.50;2.90;;;;;;;9.95;74.99;98923.81;2618382;47;20061;-71
2022/01/03 05:12:23;;;;;;;9.10;2.38;;;;;;;10.00;74.79;98929.34;2619149;46;20069;-69
2022/01/03 05:14:53;;;;;;;12.15;2.42;;;;;;;10.01;74.49;98931.00;2618306;54;20023;-69
2022/01/03 05:17:23;;;;;;;18.52;3.55;;;;;;;10.05;75.02;98934.91;2622920;54;20023;-65
2022/01/03 05:19:54;;;;;;;12.27;3.05;;;;;;;10.05;74.27;98925.16;2624836;54;20038;-65
2022/01/03 09:28:52;;;;;;;12.88;3.28;;;;;;;10.51;74.06;98902.88;2624939;46;20037;-70
2022/01/03 09:31:26;;;;;;;14.65;2.90;;;;;;;10.54;74.28;98891.94;2624899;54;20037;-70
2022/01/03 09:33:57;;;;;;;13.10;3.35;;;;;;;10.56;74.10;98895.19;2623592;47;20035;-70
2022/01/03 09:36:27;;;;;;;13.27;3.05;;;;;;;10.58;73.73;98901.13;2624084;54;20077;31
2022/01/03 09:38:57;;;;;;;11.73;2.80;;;;;;;10.60;73.96;98899.09;2617383;54;19939;-66
2022/01/03 09:41:31;;;;;;;18.48;3.72;;;;;;;10.61;73.85;98895.44;2618488;54;20026;-64
2022/01/03 09:44:04;;;;;;;13.57;3.13;;;;;;;10.58;73.60;98891.38;2618406;47;20030;-66
2022/01/03 09:46:36;;;;;;;12.23;3.65;;;;;;;10.55;73.99;98891.75;2618287;54;20564;-66
2022/01/03 09:49:09;;;;;;;13.93;3.75;;;;;;;10.55;74.62;98891.75;2618177;54;20031;-66
2022/01/03 09:51:40;;;;;;;10.43;3.10;;;;;;;10.72;73.98;98879.06;2617894;47;20026;-65
2022/01/03 09:54:13;;;;;;;15.50;3.95;;;;;;;10.72;73.87;98889.66;2618290;54;20041;-64
2022/01/03 09:56:46;;;;;;;14.87;3.00;;;;;;;10.75;74.13;98886.63;2617630;47;20086;-65
2022/01/03 09:59:16;;;;;;;12.00;2.90;;;;;;;10.69;73.57;98889.19;2619523;54;20054;-64
2022/01/03 10:01:47;;;;;;;18.45;3.38;;;;;;;10.67;73.88;98884.13;2626158;54;20030;-64
2022/01/03 10:04:18;;;;;;;15.75;3.08;;;;;;;10.65;74.02;98896.69;2625565;47;20027;-65
2022/01/03 10:06:48;;;;;;;10.80;3.55;;;;;;;10.68;73.92;98892.88;2625506;54;20026;-64
2022/01/03 10:09:19;;;;;;;13.98;3.25;;;;;;;10.75;73.87;98888.47;2625684;54;20026;-65
2022/01/03 10:11:53;;;;;;;11.70;2.67;;;;;;;10.77;73.40;98892.53;2626139;54;20031;-65
2022/01/03 10:14:22;;;;;;;16.10;3.08;;;;;;;10.81;73.88;98880.56;2626252;47;20030;-65
2022/01/03 10:16:52;;;;;;;14.70;3.28;;;;;;;10.82;73.55;98882.22;2624495;54;20129;-64
2022/01/03 10:19:27;;;;;;;14.35;2.85;;;;;;;10.77;73.29;98876.66;2625382;54;20103;-65
2022/01/03 10:21:57;;;;;;;10.05;2.85;;;;;;;10.81;73.39;98879.75;2625011;54;20042;-65
2022/01/03 10:24:35;;;;;;;12.73;3.17;;;;;;;10.80;73.89;98884.22;2619247;54;20027;-64
2022/01/03 10:27:07;;;;;;;14.77;2.72;;;;;;;10.78;73.80;98896.00;2619673;54;20033;-63
2022/01/03 10:29:37;;;;;;;13.50;2.88;;;;;;;10.77;73.74;98879.31;2623514;54;20038;-65
2022/01/03 10:32:09;;;;;;;12.43;3.15;;;;;;;10.78;73.96;98883.59;2622550;54;20052;-64
2022/01/03 10:34:39;;;;;;;14.13;3.03;;;;;;;10.79;73.39;98873.84;2622033;54;20038;-64
2022/01/03 10:37:14;;;;;;;15.07;3.50;;;;;;;10.77;73.59;98867.91;2623267;54;20030;-64
2022/01/03 10:39:44;;;;;;;14.98;3.50;;;;;;;10.83;73.57;98861.88;2623426;54;20546;-65
2022/01/03 10:42:21;;;;;;;16.02;4.90;;;;;;;10.82;73.66;98857.59;2624363;54;20593;-64
2022/01/03 10:44:51;;;;;;;33.70;13.13;;;;;;;10.88;73.24;98859.47;2623612;54;20034;-64
2022/01/03 10:47:32;;;;;;;16.05;4.65;;;;;;;10.81;73.29;98862.03;2623905;54;20030;-66
2022/01/03 10:50:14;;;;;;;14.35;3.20;;;;;;;10.81;73.45;98850.66;2622095;54;20041;-65
2022/01/03 10:52:45;;;;;;;13.52;3.45;;;;;;;10.80;73.61;98852.47;2617976;54;20069;-63
2022/01/03 10:55:18;;;;;;;13.00;3.70;;;;;;;10.83;73.18;98852.09;2618965;47;20035;-63
2022/01/03 10:57:59;;;;;;;10.65;3.05;;;;;;;10.93;73.45;98843.00;2618241;54;20078;-63
2022/01/03 11:00:32;;;;;;;15.75;2.60;;;;;;;10.93;72.92;98850.94;2619250;54;20045;-64
2022/01/03 11:03:30;;;;;;;18.05;3.88;;;;;;;10.91;72.83;98837.91;2619960;31;20500;-65
2022/01/03 11:06:14;;;;;;;14.23;2.38;;;;;;;10.89;72.97;98848.66;2621057;54;20038;-64
2022/01/03 11:11:36;;;;;;;14.98;2.63;;;;;;;10.92;72.93;98839.53;2622391;54;20042;-64
2022/01/03 11:14:09;;;;;;;14.68;2.90;;;;;;;10.96;73.03;98832.84;2624248;54;20038;-64
2022/01/03 11:16:42;;;;;;;13.40;3.58;;;;;;;11.05;72.74;98830.88;2620548;54;20041;-64
2022/01/03 11:19:12;;;;;;;15.63;3.35;;;;;;;10.97;72.93;98825.72;2619086;54;20041;-63
2022/01/03 11:21:44;;;;;;;16.40;3.17;;;;;;;11.01;72.72;98822.50;2618766;54;20037;-62
2022/01/03 11:24:16;;;;;;;10.15;2.72;;;;;;;11.01;72.39;98832.28;2618698;54;20037;-63
2022/01/03 11:26:49;;;;;;;12.35;3.45;;;;;;;11.04;72.90;98831.88;2618724;54;20034;-64
2022/01/03 11:29:21;;;;;;;12.85;3.20;;;;;;;11.07;72.09;98827.03;2618782;54;20103;-62
2022/01/03 11:31:54;;;;;;;15.68;5.00;;;;;;;11.05;72.27;98822.94;2619387;39;20494;-64
2022/01/03 11:34:26;;;;;;;8.02;2.47;;;;;;;11.06;72.01;98819.28;2618929;54;20034;-63
2022/01/03 11:37:01;;;;;;;12.60;2.60;;;;;;;11.14;71.59;98812.00;2617970;54;20038;-64
2022/01/03 11:39:36;;;;;;;8.50;1.90;;;;;;;11.12;70.78;98818.50;2618136;54;20533;-65
2022/01/03 11:42:06;;;;;;;10.27;2.60;;;;;;;11.13;71.23;98812.19;2618420;54;20065;-64
2022/01/03 11:44:42;;;;;;;11.60;2.83;;;;;;;11.21;70.95;98804.09;2618518;54;20034;-64
2022/01/03 11:47:12;;;;;;;10.77;2.20;;;;;;;11.14;70.65;98796.16;2618339;54;20061;-64
2022/01/03 11:49:42;;;;;;;10.20;2.63;;;;;;;11.09;70.80;98787.13;2618852;54;20082;-64
2022/01/03 11:52:14;;;;;;;8.57;2.40;;;;;;;11.07;71.03;98789.19;2618983;54;20038;-63
2022/01/03 11:54:46;;;;;;;10.30;2.45;;;;;;;11.06;71.12;98779.59;2619219;54;20571;-63
2022/01/03 11:57:22;;;;;;;11.82;2.97;;;;;;;11.05;70.93;98777.97;2618441;54;20035;-64
2022/01/03 12:05:45;;;;;;;9.02;3.33;;;;;;;11.15;71.15;98768.66;2618163;54;20038;-61
2022/01/03 12:08:22;;;;;;;10.55;2.88;;;;;;;11.20;71.58;98756.69;2618832;54;20552;-63
2022/01/03 12:10:53;;;;;;;14.95;3.55;;;;;;;11.17;71.61;98749.94;2618810;54;20034;-64
2022/01/03 12:13:22;;;;;;;12.98;2.85;;;;;;;11.15;71.72;98749.34;2618873;54;20561;-64
2022/01/03 12:16:10;;;;;;;9.38;2.67;;;;;;;11.23;71.12;98730.63;2618885;31;20577;-64
2022/01/03 12:18:39;;;;;;;11.82;2.75;;;;;;;11.30;71.28;98730.63;2618391;54;20037;-63
2022/01/03 12:21:09;;;;;;;12.48;2.78;;;;;;;11.38;71.20;98718.03;2618839;54;20559;-63
2022/01/03 12:23:44;;;;;;;15.10;3.58;;;;;;;11.44;70.42;98716.44;2619017;54;20046;-63
2022/01/03 12:26:17;;;;;;;14.23;3.53;;;;;;;11.45;70.21;98711.97;2619067;54;20157;-63
2022/01/03 12:29:08;;;;;;;9.15;2.85;;;;;;;11.52;70.41;98704.84;2618616;54;20577;-65
2022/01/03 12:32:08;;;;;;;12.93;3.60;;;;;;;11.52;70.35;98700.38;2619264;54;20034;-64
2022/01/03 12:34:41;;;;;;;16.63;3.42;;;;;;;11.55;70.38;98693.84;2619051;54;20050;-64
2022/01/03 12:37:20;;;;;;;14.68;3.78;;;;;;;11.56;70.15;98688.38;2618707;39;20156;-65
2022/01/03 12:40:13;;;;;;;12.98;3.08;;;;;;;11.62;70.05;98686.72;2619068;54;20027;-64
2022/01/03 12:42:57;;;;;;;9.10;2.97;;;;;;;11.55;69.85;98686.75;2620841;54;20058;-64
2022/01/03 12:45:52;;;;;;;12.82;3.50;;;;;;;11.47;70.12;98679.00;2620562;54;20031;-65
2022/01/03 12:48:24;;;;;;;13.20;3.80;;;;;;;11.52;70.35;98671.25;2619808;54;20026;-63
2022/01/03 12:51:17;;;;;;;11.40;3.72;;;;;;;11.52;70.33;98683.69;2619322;54;20570;-65
2022/01/03 12:53:56;;;;;;;24.33;3.90;;;;;;;11.59;70.20;98681.84;2620003;54;20042;-63
2022/01/03 12:56:33;;;;;;;12.85;3.50;;;;;;;11.43;70.30;98682.22;2618397;54;20056;-64
2022/01/03 12:59:16;;;;;;;11.05;3.22;;;;;;;11.30;70.39;98670.59;2617732;47;20530;-64
2022/01/03 13:01:46;;;;;;;15.25;4.32;;;;;;;11.32;70.51;98673.06;2618263;54;20038;-64
2022/01/03 13:04:27;;;;;;;14.20;4.13;;;;;;;11.32;69.85;98673.06;2618401;54;20039;-64
2022/01/03 13:07:06;;;;;;;10.90;3.75;;;;;;;11.33;70.04;98677.31;2618001;54;20022;-64
2022/01/03 13:09:41;;;;;;;10.70;3.83;;;;;;;11.34;69.99;98658.59;2619098;54;20038;-64
2022/01/03 13:12:11;;;;;;;14.63;4.15;;;;;;;11.34;70.05;98663.88;2617928;47;20026;-65
2022/01/03 13:14:41;;;;;;;11.70;3.20;;;;;;;11.41;70.15;98658.59;2621112;54;20086;-64
2022/01/03 13:17:12;;;;;;;11.20;3.17;;;;;;;11.40;69.80;98649.84;2620804;54;20053;-63
2022/01/03 13:19:42;;;;;;;12.30;2.70;;;;;;;11.32;69.17;98657.19;2621088;54;20035;-66
2022/01/03 13:22:15;;;;;;;12.65;3.83;;;;;;;11.27;69.75;98644.53;2621167;54;20058;-64
2022/01/03 13:24:47;;;;;;;9.38;2.80;;;;;;;11.28;69.54;98640.88;2620986;54;20102;-65
2022/01/03 13:27:19;;;;;;;14.05;3.67;;;;;;;11.31;69.19;98637.03;2620510;54;20030;-65
2022/01/03 13:29:51;;;;;;;13.30;3.63;;;;;;;11.28;69.32;98637.41;2618749;47;20038;-64
2022/01/03 13:32:25;;;;;;;11.85;2.92;;;;;;;11.31;69.34;98624.59;2617841;54;20050;-64
2022/01/03 13:34:57;;;;;;;14.32;3.83;;;;;;;11.43;69.40;98624.81;2617890;54;20046;-64
2022/01/03 13:37:32;;;;;;;10.43;2.65;;;;;;;11.49;68.19;98623.19;2617452;54;20046;-65
2022/01/03 13:40:03;;;;;;;8.10;2.17;;;;;;;11.45;68.45;98601.59;2617894;54;20064;-64
2022/01/03 13:42:40;;;;;;;14.75;3.80;;;;;;;11.43;67.76;98608.09;2617963;54;20568;-64
2022/01/03 13:49:11;;;;;;;16.58;3.33;;;;;;;11.42;68.25;98604.66;2617991;54;20240;-64
2022/01/03 13:51:02;;;;;;;14.60;3.40;;;;;;;11.43;68.19;98601.00;2618333;54;20041;-64
2022/01/03 13:53:35;;;;;;;9.38;2.70;;;;;;;11.45;67.67;98606.09;2618522;54;20038;-64
2022/01/03 13:56:04;;;;;;;13.77;3.08;;;;;;;11.35;67.73;98590.63;2618106;54;20039;-65
2022/01/03 13:58:43;;;;;;;9.80;2.83;;;;;;;11.26;67.69;98579.38;2618593;54;20034;-65
2022/01/03 14:01:14;;;;;;;13.20;3.00;;;;;;;11.24;67.93;98584.09;2618067;54;20038;-64
2022/01/03 14:03:46;;;;;;;9.10;2.58;;;;;;;11.33;68.04;98579.41;2618574;54;20045;-64
2022/01/03 14:06:18;;;;;;;11.98;3.15;;;;;;;11.32;67.64;98575.94;2618056;54;20050;-64
2022/01/03 14:08:53;;;;;;;9.05;3.05;;;;;;;11.31;67.48;98570.88;2618220;54;20050;-65
2022/01/03 14:11:23;;;;;;;10.23;2.78;;;;;;;11.30;67.86;98577.16;2618143;54;20031;-65
2022/01/03 14:13:53;;;;;;;9.80;2.72;;;;;;;11.30;67.58;98561.28;2618488;54;20026;-64
2022/01/03 14:16:27;;;;;;;9.15;2.88;;;;;;;11.33;67.79;98566.97;2618041;54;20026;-64
2022/01/03 14:18:58;;;;;;;11.07;3.28;;;;;;;11.35;67.50;98562.31;2618161;54;20045;-65
2022/01/03 14:21:30;;;;;;;11.43;2.65;;;;;;;11.35;67.52;98564.97;2618351;54;20026;-64
2022/01/03 14:24:10;;;;;;;9.48;2.75;;;;;;;11.34;67.82;98563.31;2618092;54;20038;-64
2022/01/03 14:26:41;;;;;;;9.93;2.80;;;;;;;11.35;67.40;98564.16;2618029;54;20562;-65
2022/01/03 14:29:13;;;;;;;10.38;2.90;;;;;;;11.29;67.38;98557.81;2619041;39;20403;-64
2022/01/03 14:31:47;;;;;;;11.02;3.20;;;;;;;11.26;67.79;98552.94;2619235;54;20048;-64
2022/01/03 14:34:24;;;;;;;15.60;3.25;;;;;;;11.22;67.51;98553.53;2618771;54;20038;-64
2022/01/03 14:36:54;;;;;;;12.88;4.28;;;;;;;11.18;67.82;98562.91;2618641;54;20078;-64
2022/01/03 14:39:27;;;;;;;9.55;2.55;;;;;;;11.11;67.88;98552.31;2619100;54;20033;-64
2022/01/03 14:42:04;;;;;;;13.25;3.40;;;;;;;11.08;68.07;98542.13;2619179;54;20054;-64
2022/01/03 14:44:36;;;;;;;9.98;3.25;;;;;;;11.06;68.28;98538.88;2619252;54;20031;-64
2022/01/03 14:47:09;;;;;;;16.05;5.47;;;;;;;11.07;68.69;98538.69;2618995;54;20051;-63
2022/01/03 14:49:40;;;;;;;11.48;3.28;;;;;;;11.11;68.46;98542.56;2619883;54;20022;-65
2022/01/03 14:52:10;;;;;;;7.72;3.20;;;;;;;11.07;68.23;98538.69;2619374;54;20034;-64
2022/01/03 14:54:51;;;;;;;11.55;3.53;;;;;;;11.08;68.65;98544.78;2618962;54;20038;-64
2022/01/03 14:57:27;;;;;;;8.32;2.42;;;;;;;11.06;68.60;98541.50;2619031;54;20045;-64
2022/01/03 14:59:57;;;;;;;10.20;3.30;;;;;;;11.04;68.88;98525.84;2619303;39;20539;-64
2022/01/03 15:02:27;;;;;;;11.93;2.78;;;;;;;11.03;69.00;98526.06;2619339;39;20414;-64
2022/01/03 15:05:00;;;;;;;8.13;2.35;;;;;;;10.97;69.01;98540.09;2619282;54;20050;-65
2022/01/03 15:07:34;;;;;;;12.73;3.38;;;;;;;10.98;69.07;98526.69;2618565;54;20038;-65
2022/01/03 15:10:08;;;;;;;8.88;2.75;;;;;;;10.91;68.88;98524.00;2621375;54;20034;-64
2022/01/03 15:12:51;;;;;;;8.85;2.95;;;;;;;10.90;69.35;98532.97;2626358;39;20434;-65
2022/01/03 15:15:28;;;;;;;10.60;3.15;;;;;;;10.94;69.14;98533.38;2624984;54;20057;-64
2022/01/03 15:17:59;;;;;;;9.35;2.72;;;;;;;10.92;69.16;98519.53;2624239;54;20043;-65
2022/01/03 15:20:31;;;;;;;7.20;1.98;;;;;;;10.88;68.56;98519.13;2623947;47;20129;-65
2022/01/03 15:23:02;;;;;;;11.82;3.08;;;;;;;10.83;69.14;98513.63;2624957;39;20413;-65
2022/01/03 15:25:34;;;;;;;9.32;3.03;;;;;;;10.84;67.89;98509.97;2624506;54;20034;-66
2022/01/03 15:28:04;;;;;;;8.18;2.53;;;;;;;10.84;67.81;98514.44;2625699;54;20062;-66
2022/01/03 15:30:37;;;;;;;8.80;2.70;;;;;;;10.82;68.50;98519.94;2624228;54;20088;-65
2022/01/03 15:33:23;;;;;;;11.77;3.17;;;;;;;10.84;68.81;98511.78;2619557;54;20045;-65
2022/01/03 15:35:54;;;;;;;6.55;2.05;;;;;;;10.82;69.08;98506.72;2619143;54;20035;-65
2022/01/03 15:38:28;;;;;;;10.32;3.17;;;;;;;10.80;68.88;98500.00;2619610;54;20042;-70
2022/01/03 15:41:03;;;;;;;12.50;4.47;;;;;;;10.79;68.95;98501.81;2621837;54;20138;-70
2022/01/03 15:43:37;;;;;;;12.40;2.90;;;;;;;10.79;69.25;98493.88;2623144;54;20027;-68
2022/01/03 15:46:11;;;;;;;9.80;4.38;;;;;;;10.71;69.88;98502.00;2622795;47;20037;-70
2022/01/03 15:48:48;;;;;;;10.52;2.65;;;;;;;10.64;70.53;98494.06;2623372;54;20033;-68
2022/01/03 15:51:18;;;;;;;7.85;2.25;;;;;;;10.63;71.09;98494.28;2622827;46;20030;-70
2022/01/03 15:53:51;;;;;;;7.90;2.60;;;;;;;10.56;71.92;98496.88;2622959;47;20069;-70
2022/01/03 15:56:24;;;;;;;7.95;2.40;;;;;;;10.56;72.46;98496.06;2622897;47;20078;-72
2022/01/03 15:58:55;;;;;;;8.27;3.30;;;;;;;10.52;72.82;98494.84;2621600;47;20050;-69
2022/01/03 16:01:31;;;;;;;11.35;3.67;;;;;;;10.50;73.14;98497.69;2621992;54;20026;-69
2022/01/03 16:04:02;;;;;;;10.07;3.35;;;;;;;10.50;73.64;98495.06;2622377;46;20046;-71
2022/01/03 16:06:35;;;;;;;7.97;3.83;;;;;;;10.44;73.86;98509.06;2622061;54;20031;-70
2022/01/03 16:09:09;;;;;;;11.57;4.13;;;;;;;10.44;74.15;98498.47;2622054;46;20026;-70
2022/01/03 16:11:45;;;;;;;12.88;4.32;;;;;;;10.37;74.41;98493.19;2621824;46;20082;-70
2022/01/03 16:14:21;;;;;;;15.43;6.00;;;;;;;10.37;74.55;98479.16;2621868;47;20558;-69
2022/01/03 16:16:54;;;;;;;10.05;3.20;;;;;;;10.36;74.75;98475.69;2621895;54;20034;-69
2022/01/03 16:19:24;;;;;;;12.90;4.38;;;;;;;10.40;75.31;98469.00;2621118;47;20040;-71